sensor_id;sensor_type;location;lat;lon;timestamp;temperature;humidity
76613;DHT22;65507;48.454;-2.058;2023-05-10T00:00:54;12.20;81.50
76613;DHT22;65507;48.454;-2.058;2023-05-10T00:03:19;12.20;81.50
76613;DHT22;65507;48.454;-2.058;2023-05-10T00:05:45;12.20;81.50
76613;DHT22;65507;48.454;-2.058;2023-05-10T00:08:10;12.20;81.60
76613;DHT22;65507;48.454;-2.058;2023-05-10T00:10:36;12.20;81.60
76613;DHT22;65507;48.454;-2.058;2023-05-10T00:13:03;12.20;81.50
76613;DHT22;65507;48.454;-2.058;2023-05-10T00:15:29;12.20;81.50
76613;DHT22;65507;48.454;-2.058;2023-05-10T00:17:56;12.20;81.40
76613;DHT22;65507;48.454;-2.058;2023-05-10T00:20:22;12.20;81.40
76613;DHT22;65507;48.454;-2.058;2023-05-10T00:22:47;12.20;81.40
76613;DHT22;65507;48.454;-2.058;2023-05-10T00:25:13;12.20;81.40
76613;DHT22;65507;48.454;-2.058;2023-05-10T00:27:39;12.20;81.40
76613;DHT22;65507;48.454;-2.058;2023-05-10T00:30:05;12.20;81.40
76613;DHT22;65507;48.454;-2.058;2023-05-10T00:32:31;12.20;81.40
76613;DHT22;65507;48.454;-2.058;2023-05-10T00:34:57;12.20;81.50
76613;DHT22;65507;48.454;-2.058;2023-05-10T00:37:23;12.20;81.50
76613;DHT22;65507;48.454;-2.058;2023-05-10T00:39:48;12.10;81.60
76613;DHT22;65507;48.454;-2.058;2023-05-10T00:42:14;12.10;81.70
76613;DHT22;65507;48.454;-2.058;2023-05-10T00:44:40;12.00;81.70
76613;DHT22;65507;48.454;-2.058;2023-05-10T00:47:06;12.00;81.80
76613;DHT22;65507;48.454;-2.058;2023-05-10T00:49:32;11.90;81.90
76613;DHT22;65507;48.454;-2.058;2023-05-10T00:51:58;11.90;82.00
76613;DHT22;65507;48.454;-2.058;2023-05-10T00:54:23;11.90;82.10
76613;DHT22;65507;48.454;-2.058;2023-05-10T00:56:49;11.90;82.00
76613;DHT22;65507;48.454;-2.058;2023-05-10T00:59:16;11.90;82.10
76613;DHT22;65507;48.454;-2.058;2023-05-10T01:01:46;11.90;82.20
76613;DHT22;65507;48.454;-2.058;2023-05-10T01:04:13;11.90;82.10
76613;DHT22;65507;48.454;-2.058;2023-05-10T01:06:40;11.90;82.10
76613;DHT22;65507;48.454;-2.058;2023-05-10T01:09:06;11.90;82.10
76613;DHT22;65507;48.454;-2.058;2023-05-10T01:11:36;11.90;82.00
76613;DHT22;65507;48.454;-2.058;2023-05-10T01:14:03;11.90;82.00
76613;DHT22;65507;48.454;-2.058;2023-05-10T01:16:33;11.90;82.00
76613;DHT22;65507;48.454;-2.058;2023-05-10T01:19:00;11.90;82.10
76613;DHT22;65507;48.454;-2.058;2023-05-10T01:21:48;11.90;82.10
76613;DHT22;65507;48.454;-2.058;2023-05-10T01:35:07;12.00;82.20
76613;DHT22;65507;48.454;-2.058;2023-05-10T01:40:26;11.90;82.30
76613;DHT22;65507;48.454;-2.058;2023-05-10T01:43:00;11.90;82.20
76613;DHT22;65507;48.454;-2.058;2023-05-10T01:45:36;11.90;82.30
76613;DHT22;65507;48.454;-2.058;2023-05-10T01:48:10;11.90;82.40
76613;DHT22;65507;48.454;-2.058;2023-05-10T01:50:38;11.90;82.40
76613;DHT22;65507;48.454;-2.058;2023-05-10T01:53:08;11.90;82.50
76613;DHT22;65507;48.454;-2.058;2023-05-10T01:55:39;11.90;82.50
76613;DHT22;65507;48.454;-2.058;2023-05-10T01:58:13;11.90;82.60
76613;DHT22;65507;48.454;-2.058;2023-05-10T02:00:43;11.80;82.60
76613;DHT22;65507;48.454;-2.058;2023-05-10T02:03:10;11.80;82.70
76613;DHT22;65507;48.454;-2.058;2023-05-10T02:05:37;11.80;82.80
76613;DHT22;65507;48.454;-2.058;2023-05-10T02:08:06;11.70;82.80
76613;DHT22;65507;48.454;-2.058;2023-05-10T02:10:35;11.70;82.90
76613;DHT22;65507;48.454;-2.058;2023-05-10T02:13:02;11.70;83.00
76613;DHT22;65507;48.454;-2.058;2023-05-10T02:15:29;11.70;83.00
76613;DHT22;65507;48.454;-2.058;2023-05-10T02:17:58;11.70;83.00
76613;DHT22;65507;48.454;-2.058;2023-05-10T02:20:26;11.70;83.00
76613;DHT22;65507;48.454;-2.058;2023-05-10T02:22:54;11.70;83.00
76613;DHT22;65507;48.454;-2.058;2023-05-10T02:25:19;11.70;83.00
76613;DHT22;65507;48.454;-2.058;2023-05-10T02:27:47;11.70;83.00
76613;DHT22;65507;48.454;-2.058;2023-05-10T02:30:14;11.70;82.90
76613;DHT22;65507;48.454;-2.058;2023-05-10T02:32:41;11.70;82.90
76613;DHT22;65507;48.454;-2.058;2023-05-10T02:35:08;11.70;82.80
76613;DHT22;65507;48.454;-2.058;2023-05-10T02:37:34;11.70;82.80
76613;DHT22;65507;48.454;-2.058;2023-05-10T02:40:01;11.70;82.90
76613;DHT22;65507;48.454;-2.058;2023-05-10T02:42:29;11.70;83.00
76613;DHT22;65507;48.454;-2.058;2023-05-10T02:45:01;11.60;83.00
76613;DHT22;65507;48.454;-2.058;2023-05-10T02:47:29;11.60;83.20
76613;DHT22;65507;48.454;-2.058;2023-05-10T02:49:55;11.60;83.30
76613;DHT22;65507;48.454;-2.058;2023-05-10T02:52:27;11.50;83.30
76613;DHT22;65507;48.454;-2.058;2023-05-10T02:55:01;12.20;84.80
76613;DHT22;65507;48.454;-2.058;2023-05-10T02:57:33;11.50;83.50
76613;DHT22;65507;48.454;-2.058;2023-05-10T03:00:00;11.40;83.50
76613;DHT22;65507;48.454;-2.058;2023-05-10T03:02:26;11.50;83.60
76613;DHT22;65507;48.454;-2.058;2023-05-10T03:04:52;11.50;83.60
76613;DHT22;65507;48.454;-2.058;2023-05-10T03:07:18;11.50;83.50
76613;DHT22;65507;48.454;-2.058;2023-05-10T03:09:47;11.60;83.30
76613;DHT22;65507;48.454;-2.058;2023-05-10T03:18:01;11.70;83.20
76613;DHT22;65507;48.454;-2.058;2023-05-10T03:20:46;11.70;83.20
76613;DHT22;65507;48.454;-2.058;2023-05-10T03:23:34;11.60;83.30
76613;DHT22;65507;48.454;-2.058;2023-05-10T03:26:01;11.60;83.30
76613;DHT22;65507;48.454;-2.058;2023-05-10T03:28:28;11.60;83.40
76613;DHT22;65507;48.454;-2.058;2023-05-10T03:30:54;11.60;83.40
76613;DHT22;65507;48.454;-2.058;2023-05-10T03:33:20;11.60;83.50
76613;DHT22;65507;48.454;-2.058;2023-05-10T03:35:46;11.50;83.60
76613;DHT22;65507;48.454;-2.058;2023-05-10T03:38:12;11.50;83.70
76613;DHT22;65507;48.454;-2.058;2023-05-10T03:40:38;11.50;83.70
76613;DHT22;65507;48.454;-2.058;2023-05-10T03:43:04;11.40;83.70
76613;DHT22;65507;48.454;-2.058;2023-05-10T03:45:30;11.40;83.80
76613;DHT22;65507;48.454;-2.058;2023-05-10T03:47:57;11.40;84.00
76613;DHT22;65507;48.454;-2.058;2023-05-10T03:50:23;11.30;84.90
76613;DHT22;65507;48.454;-2.058;2023-05-10T03:52:48;11.30;84.10
76613;DHT22;65507;48.454;-2.058;2023-05-10T03:55:14;11.30;84.10
76613;DHT22;65507;48.454;-2.058;2023-05-10T03:57:40;11.20;84.10
76613;DHT22;65507;48.454;-2.058;2023-05-10T04:00:06;11.20;84.20
76613;DHT22;65507;48.454;-2.058;2023-05-10T04:02:32;11.20;84.20
76613;DHT22;65507;48.454;-2.058;2023-05-10T04:04:57;11.20;84.20
76613;DHT22;65507;48.454;-2.058;2023-05-10T04:07:23;11.20;84.20
76613;DHT22;65507;48.454;-2.058;2023-05-10T04:09:49;11.20;84.20
76613;DHT22;65507;48.454;-2.058;2023-05-10T04:12:15;11.20;84.20
76613;DHT22;65507;48.454;-2.058;2023-05-10T04:14:41;11.20;84.20
76613;DHT22;65507;48.454;-2.058;2023-05-10T04:17:06;11.20;84.20
76613;DHT22;65507;48.454;-2.058;2023-05-10T04:19:32;11.60;84.50
76613;DHT22;65507;48.454;-2.058;2023-05-10T04:21:58;11.10;84.20
76613;DHT22;65507;48.454;-2.058;2023-05-10T04:24:25;11.10;84.30
76613;DHT22;65507;48.454;-2.058;2023-05-10T04:26:51;11.10;84.30
76613;DHT22;65507;48.454;-2.058;2023-05-10T04:29:16;11.10;84.30
76613;DHT22;65507;48.454;-2.058;2023-05-10T04:31:42;11.10;84.40
76613;DHT22;65507;48.454;-2.058;2023-05-10T04:34:08;11.10;84.40
76613;DHT22;65507;48.454;-2.058;2023-05-10T04:36:33;11.20;84.50
76613;DHT22;65507;48.454;-2.058;2023-05-10T04:39:02;11.20;84.40
76613;DHT22;65507;48.454;-2.058;2023-05-10T04:41:31;11.20;84.40
76613;DHT22;65507;48.454;-2.058;2023-05-10T04:43:56;11.20;84.40
76613;DHT22;65507;48.454;-2.058;2023-05-10T04:46:22;11.20;84.40
76613;DHT22;65507;48.454;-2.058;2023-05-10T04:48:48;11.30;84.30
76613;DHT22;65507;48.454;-2.058;2023-05-10T04:51:14;11.30;84.20
76613;DHT22;65507;48.454;-2.058;2023-05-10T04:53:39;11.40;84.20
76613;DHT22;65507;48.454;-2.058;2023-05-10T04:56:05;11.40;84.10
76613;DHT22;65507;48.454;-2.058;2023-05-10T04:58:31;11.50;84.10
76613;DHT22;65507;48.454;-2.058;2023-05-10T05:00:57;11.50;84.00
76613;DHT22;65507;48.454;-2.058;2023-05-10T05:03:23;11.50;84.00
76613;DHT22;65507;48.454;-2.058;2023-05-10T05:05:48;11.50;84.00
76613;DHT22;65507;48.454;-2.058;2023-05-10T05:08:14;11.50;84.00
76613;DHT22;65507;48.454;-2.058;2023-05-10T05:10:40;11.50;85.00
76613;DHT22;65507;48.454;-2.058;2023-05-10T05:13:05;11.50;84.20
76613;DHT22;65507;48.454;-2.058;2023-05-10T05:15:31;11.50;84.30
76613;DHT22;65507;48.454;-2.058;2023-05-10T05:17:57;11.60;84.30
76613;DHT22;65507;48.454;-2.058;2023-05-10T05:20:23;11.60;84.20
76613;DHT22;65507;48.454;-2.058;2023-05-10T05:22:48;11.60;84.30
76613;DHT22;65507;48.454;-2.058;2023-05-10T05:25:14;11.60;84.20
76613;DHT22;65507;48.454;-2.058;2023-05-10T05:27:41;11.60;84.20
76613;DHT22;65507;48.454;-2.058;2023-05-10T05:30:07;11.70;84.30
76613;DHT22;65507;48.454;-2.058;2023-05-10T05:32:33;11.70;84.30
76613;DHT22;65507;48.454;-2.058;2023-05-10T05:34:59;11.70;84.40
76613;DHT22;65507;48.454;-2.058;2023-05-10T05:37:25;11.70;84.40
76613;DHT22;65507;48.454;-2.058;2023-05-10T05:39:51;11.70;84.40
76613;DHT22;65507;48.454;-2.058;2023-05-10T05:42:19;11.80;84.50
76613;DHT22;65507;48.454;-2.058;2023-05-10T05:44:45;11.80;84.30
76613;DHT22;65507;48.454;-2.058;2023-05-10T05:47:11;11.90;84.30
76613;DHT22;65507;48.454;-2.058;2023-05-10T05:49:36;11.90;84.30
76613;DHT22;65507;48.454;-2.058;2023-05-10T05:52:03;11.90;84.20
76613;DHT22;65507;48.454;-2.058;2023-05-10T05:54:29;11.90;84.20
76613;DHT22;65507;48.454;-2.058;2023-05-10T05:56:59;11.90;84.30
76613;DHT22;65507;48.454;-2.058;2023-05-10T05:59:26;12.00;84.30
76613;DHT22;65507;48.454;-2.058;2023-05-10T06:01:52;12.10;84.20
76613;DHT22;65507;48.454;-2.058;2023-05-10T06:04:18;12.10;84.10
76613;DHT22;65507;48.454;-2.058;2023-05-10T06:06:44;12.10;84.00
76613;DHT22;65507;48.454;-2.058;2023-05-10T06:09:10;12.20;84.10
76613;DHT22;65507;48.454;-2.058;2023-05-10T06:11:36;12.20;84.20
76613;DHT22;65507;48.454;-2.058;2023-05-10T06:14:03;12.20;84.30
76613;DHT22;65507;48.454;-2.058;2023-05-10T06:16:33;12.20;84.30
76613;DHT22;65507;48.454;-2.058;2023-05-10T06:18:59;12.20;84.40
76613;DHT22;65507;48.454;-2.058;2023-05-10T06:21:25;12.20;84.40
76613;DHT22;65507;48.454;-2.058;2023-05-10T06:23:51;12.30;84.30
76613;DHT22;65507;48.454;-2.058;2023-05-10T06:26:16;12.40;84.30
76613;DHT22;65507;48.454;-2.058;2023-05-10T06:28:42;12.40;84.20
76613;DHT22;65507;48.454;-2.058;2023-05-10T06:31:08;12.60;84.00
76613;DHT22;65507;48.454;-2.058;2023-05-10T06:33:34;12.80;83.70
76613;DHT22;65507;48.454;-2.058;2023-05-10T06:36:00;12.90;83.40
76613;DHT22;65507;48.454;-2.058;2023-05-10T06:38:26;13.00;83.50
76613;DHT22;65507;48.454;-2.058;2023-05-10T06:40:51;13.10;83.50
76613;DHT22;65507;48.454;-2.058;2023-05-10T06:43:17;13.10;83.10
76613;DHT22;65507;48.454;-2.058;2023-05-10T06:45:43;13.10;83.10
76613;DHT22;65507;48.454;-2.058;2023-05-10T06:48:08;13.10;83.10
76613;DHT22;65507;48.454;-2.058;2023-05-10T06:50:35;13.10;83.20
76613;DHT22;65507;48.454;-2.058;2023-05-10T06:53:01;13.20;83.20
76613;DHT22;65507;48.454;-2.058;2023-05-10T06:55:27;13.30;83.20
76613;DHT22;65507;48.454;-2.058;2023-05-10T06:57:54;13.30;83.10
76613;DHT22;65507;48.454;-2.058;2023-05-10T07:00:20;13.30;83.10
76613;DHT22;65507;48.454;-2.058;2023-05-10T07:02:47;13.30;83.10
76613;DHT22;65507;48.454;-2.058;2023-05-10T07:05:13;13.30;83.30
76613;DHT22;65507;48.454;-2.058;2023-05-10T07:07:39;13.20;83.50
76613;DHT22;65507;48.454;-2.058;2023-05-10T07:10:05;13.20;83.90
76613;DHT22;65507;48.454;-2.058;2023-05-10T07:12:32;13.20;83.90
76613;DHT22;65507;48.454;-2.058;2023-05-10T07:14:58;13.20;84.00
76613;DHT22;65507;48.454;-2.058;2023-05-10T07:17:24;13.10;84.00
76613;DHT22;65507;48.454;-2.058;2023-05-10T07:19:49;13.10;84.10
76613;DHT22;65507;48.454;-2.058;2023-05-10T07:22:15;13.20;84.10
76613;DHT22;65507;48.454;-2.058;2023-05-10T07:24:42;13.30;84.10
76613;DHT22;65507;48.454;-2.058;2023-05-10T07:27:08;13.30;84.00
76613;DHT22;65507;48.454;-2.058;2023-05-10T07:29:34;13.40;84.00
76613;DHT22;65507;48.454;-2.058;2023-05-10T07:32:00;13.40;84.00
76613;DHT22;65507;48.454;-2.058;2023-05-10T07:34:26;13.40;84.00
76613;DHT22;65507;48.454;-2.058;2023-05-10T07:36:53;13.50;83.90
76613;DHT22;65507;48.454;-2.058;2023-05-10T07:39:19;13.50;83.80
76613;DHT22;65507;48.454;-2.058;2023-05-10T07:41:46;13.60;83.80
76613;DHT22;65507;48.454;-2.058;2023-05-10T07:44:11;13.60;83.70
76613;DHT22;65507;48.454;-2.058;2023-05-10T07:46:37;13.60;83.80
76613;DHT22;65507;48.454;-2.058;2023-05-10T07:49:04;13.70;83.80
76613;DHT22;65507;48.454;-2.058;2023-05-10T07:51:30;13.70;83.80
76613;DHT22;65507;48.454;-2.058;2023-05-10T07:53:55;13.80;83.70
76613;DHT22;65507;48.454;-2.058;2023-05-10T07:56:26;13.90;83.60
76613;DHT22;65507;48.454;-2.058;2023-05-10T07:58:55;14.70;83.90
76613;DHT22;65507;48.454;-2.058;2023-05-10T08:01:22;14.00;83.30
76613;DHT22;65507;48.454;-2.058;2023-05-10T08:03:48;14.00;83.30
76613;DHT22;65507;48.454;-2.058;2023-05-10T08:06:22;14.10;83.40
76613;DHT22;65507;48.454;-2.058;2023-05-10T08:08:48;14.10;83.20
76613;DHT22;65507;48.454;-2.058;2023-05-10T08:11:19;14.10;83.40
76613;DHT22;65507;48.454;-2.058;2023-05-10T08:13:46;14.10;83.50
76613;DHT22;65507;48.454;-2.058;2023-05-10T08:16:12;14.10;83.50
76613;DHT22;65507;48.454;-2.058;2023-05-10T08:18:38;14.20;83.40
76613;DHT22;65507;48.454;-2.058;2023-05-10T08:21:04;14.20;83.40
76613;DHT22;65507;48.454;-2.058;2023-05-10T08:23:30;14.20;83.50
76613;DHT22;65507;48.454;-2.058;2023-05-10T08:25:55;14.20;83.50
76613;DHT22;65507;48.454;-2.058;2023-05-10T08:28:21;14.20;83.60
76613;DHT22;65507;48.454;-2.058;2023-05-10T08:30:47;14.10;83.70
76613;DHT22;65507;48.454;-2.058;2023-05-10T08:33:13;14.20;83.80
76613;DHT22;65507;48.454;-2.058;2023-05-10T08:35:38;14.20;83.70
76613;DHT22;65507;48.454;-2.058;2023-05-10T08:38:04;14.20;83.70
76613;DHT22;65507;48.454;-2.058;2023-05-10T08:40:30;14.30;83.60
76613;DHT22;65507;48.454;-2.058;2023-05-10T08:43:01;14.30;83.50
76613;DHT22;65507;48.454;-2.058;2023-05-10T08:45:32;14.30;83.50
76613;DHT22;65507;48.454;-2.058;2023-05-10T08:48:01;14.30;83.40
76613;DHT22;65507;48.454;-2.058;2023-05-10T08:50:27;14.30;83.60
76613;DHT22;65507;48.454;-2.058;2023-05-10T08:52:55;14.30;83.70
76613;DHT22;65507;48.454;-2.058;2023-05-10T08:55:23;14.30;83.70
76613;DHT22;65507;48.454;-2.058;2023-05-10T08:57:49;14.30;83.70
76613;DHT22;65507;48.454;-2.058;2023-05-10T09:00:16;14.20;83.70
76613;DHT22;65507;48.454;-2.058;2023-05-10T09:02:43;14.20;83.90
76613;DHT22;65507;48.454;-2.058;2023-05-10T09:05:11;14.10;84.00
76613;DHT22;65507;48.454;-2.058;2023-05-10T09:07:37;14.10;84.20
76613;DHT22;65507;48.454;-2.058;2023-05-10T09:10:04;14.10;84.20
76613;DHT22;65507;48.454;-2.058;2023-05-10T09:12:30;14.10;84.30
76613;DHT22;65507;48.454;-2.058;2023-05-10T09:14:57;14.10;84.40
76613;DHT22;65507;48.454;-2.058;2023-05-10T09:17:23;14.20;84.30
76613;DHT22;65507;48.454;-2.058;2023-05-10T09:19:49;14.30;84.10
76613;DHT22;65507;48.454;-2.058;2023-05-10T09:22:14;14.40;84.00
76613;DHT22;65507;48.454;-2.058;2023-05-10T09:24:42;14.50;83.60
76613;DHT22;65507;48.454;-2.058;2023-05-10T09:27:10;14.60;83.40
76613;DHT22;65507;48.454;-2.058;2023-05-10T09:29:42;14.70;83.20
76613;DHT22;65507;48.454;-2.058;2023-05-10T09:32:08;14.70;83.10
76613;DHT22;65507;48.454;-2.058;2023-05-10T09:34:34;14.80;83.10
76613;DHT22;65507;48.454;-2.058;2023-05-10T09:37:02;14.70;83.20
76613;DHT22;65507;48.454;-2.058;2023-05-10T09:39:34;14.70;83.20
76613;DHT22;65507;48.454;-2.058;2023-05-10T09:42:01;14.80;83.20
76613;DHT22;65507;48.454;-2.058;2023-05-10T09:44:30;14.80;82.90
76613;DHT22;65507;48.454;-2.058;2023-05-10T09:46:55;14.90;82.70
76613;DHT22;65507;48.454;-2.058;2023-05-10T09:49:22;15.10;82.60
76613;DHT22;65507;48.454;-2.058;2023-05-10T09:51:57;15.20;82.30
76613;DHT22;65507;48.454;-2.058;2023-05-10T09:54:24;15.40;82.00
76613;DHT22;65507;48.454;-2.058;2023-05-10T09:56:50;15.50;81.70
76613;DHT22;65507;48.454;-2.058;2023-05-10T09:59:16;15.50;81.40
76613;DHT22;65507;48.454;-2.058;2023-05-10T10:01:49;15.50;81.40
76613;DHT22;65507;48.454;-2.058;2023-05-10T10:04:15;15.50;81.40
76613;DHT22;65507;48.454;-2.058;2023-05-10T10:06:41;15.50;81.50
76613;DHT22;65507;48.454;-2.058;2023-05-10T10:09:08;15.50;81.40
76613;DHT22;65507;48.454;-2.058;2023-05-10T10:11:38;15.50;81.40
76613;DHT22;65507;48.454;-2.058;2023-05-10T10:14:04;15.50;81.50
76613;DHT22;65507;48.454;-2.058;2023-05-10T10:16:30;15.30;81.80
76613;DHT22;65507;48.454;-2.058;2023-05-10T10:18:57;15.20;82.10
76613;DHT22;65507;48.454;-2.058;2023-05-10T10:21:23;15.00;82.40
76613;DHT22;65507;48.454;-2.058;2023-05-10T10:23:49;14.90;82.90
76613;DHT22;65507;48.454;-2.058;2023-05-10T10:26:17;14.80;83.30
76613;DHT22;65507;48.454;-2.058;2023-05-10T10:34:29;14.50;83.90
76613;DHT22;65507;48.454;-2.058;2023-05-10T10:36:56;14.50;84.00
76613;DHT22;65507;48.454;-2.058;2023-05-10T10:39:24;14.40;84.00
76613;DHT22;65507;48.454;-2.058;2023-05-10T10:41:54;14.50;84.00
76613;DHT22;65507;48.454;-2.058;2023-05-10T10:50:02;14.70;83.50
76613;DHT22;65507;48.454;-2.058;2023-05-10T10:52:55;14.90;83.20
76613;DHT22;65507;48.454;-2.058;2023-05-10T10:55:47;15.10;83.00
76613;DHT22;65507;48.454;-2.058;2023-05-10T10:58:34;15.40;82.40
76613;DHT22;65507;48.454;-2.058;2023-05-10T11:01:16;15.60;81.80
76613;DHT22;65507;48.454;-2.058;2023-05-10T11:06:30;15.90;81.40
76613;DHT22;65507;48.454;-2.058;2023-05-10T11:09:05;15.80;81.30
76613;DHT22;65507;48.454;-2.058;2023-05-10T11:11:31;15.70;81.50
76613;DHT22;65507;48.454;-2.058;2023-05-10T11:14:03;15.60;81.80
76613;DHT22;65507;48.454;-2.058;2023-05-10T11:16:43;15.50;82.00
76613;DHT22;65507;48.454;-2.058;2023-05-10T11:19:11;15.50;82.00
76613;DHT22;65507;48.454;-2.058;2023-05-10T11:22:12;15.60;81.90
76613;DHT22;65507;48.454;-2.058;2023-05-10T11:24:36;15.70;81.70
76613;DHT22;65507;48.454;-2.058;2023-05-10T11:27:02;15.70;81.50
76613;DHT22;65507;48.454;-2.058;2023-05-10T11:29:28;15.80;81.20
76613;DHT22;65507;48.454;-2.058;2023-05-10T11:31:57;15.90;81.00
76613;DHT22;65507;48.454;-2.058;2023-05-10T11:34:30;16.10;80.70
76613;DHT22;65507;48.454;-2.058;2023-05-10T11:37:00;16.20;80.20
76613;DHT22;65507;48.454;-2.058;2023-05-10T11:39:30;16.20;79.90
76613;DHT22;65507;48.454;-2.058;2023-05-10T11:41:57;16.30;79.80
76613;DHT22;65507;48.454;-2.058;2023-05-10T11:44:23;16.30;79.60
76613;DHT22;65507;48.454;-2.058;2023-05-10T11:46:49;16.30;79.50
76613;DHT22;65507;48.454;-2.058;2023-05-10T11:49:15;16.30;79.60
76613;DHT22;65507;48.454;-2.058;2023-05-10T11:51:40;16.30;79.50
76613;DHT22;65507;48.454;-2.058;2023-05-10T11:54:10;16.30;79.20
76613;DHT22;65507;48.454;-2.058;2023-05-10T11:56:36;16.40;79.00
76613;DHT22;65507;48.454;-2.058;2023-05-10T11:59:03;16.50;78.50
76613;DHT22;65507;48.454;-2.058;2023-05-10T12:01:29;16.50;78.30
76613;DHT22;65507;48.454;-2.058;2023-05-10T12:03:57;16.40;78.10
76613;DHT22;65507;48.454;-2.058;2023-05-10T12:06:27;16.40;78.10
76613;DHT22;65507;48.454;-2.058;2023-05-10T12:08:54;16.40;78.00
76613;DHT22;65507;48.454;-2.058;2023-05-10T12:11:20;16.40;77.90
76613;DHT22;65507;48.454;-2.058;2023-05-10T12:13:50;16.50;77.80
76613;DHT22;65507;48.454;-2.058;2023-05-10T12:16:20;16.70;77.70
76613;DHT22;65507;48.454;-2.058;2023-05-10T12:18:51;16.90;77.20
76613;DHT22;65507;48.454;-2.058;2023-05-10T12:21:17;17.00;76.70
76613;DHT22;65507;48.454;-2.058;2023-05-10T12:23:45;17.10;76.20
76613;DHT22;65507;48.454;-2.058;2023-05-10T12:26:11;17.00;76.10
76613;DHT22;65507;48.454;-2.058;2023-05-10T12:28:38;16.90;76.10
76613;DHT22;65507;48.454;-2.058;2023-05-10T12:31:05;16.80;76.00
76613;DHT22;65507;48.454;-2.058;2023-05-10T12:36:09;16.80;76.40
76613;DHT22;65507;48.454;-2.058;2023-05-10T12:38:35;16.50;76.20
76613;DHT22;65507;48.454;-2.058;2023-05-10T12:41:04;16.70;76.30
76613;DHT22;65507;48.454;-2.058;2023-05-10T12:43:31;16.60;76.60
76613;DHT22;65507;48.454;-2.058;2023-05-10T12:45:56;16.60;76.50
76613;DHT22;65507;48.454;-2.058;2023-05-10T12:48:22;16.60;76.50
76613;DHT22;65507;48.454;-2.058;2023-05-10T12:50:48;16.60;76.70
76613;DHT22;65507;48.454;-2.058;2023-05-10T12:53:18;16.70;76.50
76613;DHT22;65507;48.454;-2.058;2023-05-10T12:55:44;17.80;76.90
76613;DHT22;65507;48.454;-2.058;2023-05-10T12:58:10;16.80;76.20
76613;DHT22;65507;48.454;-2.058;2023-05-10T13:00:35;16.90;76.10
76613;DHT22;65507;48.454;-2.058;2023-05-10T13:03:04;17.00;75.90
76613;DHT22;65507;48.454;-2.058;2023-05-10T13:05:32;17.00;75.80
76613;DHT22;65507;48.454;-2.058;2023-05-10T13:07:57;17.00;75.70
76613;DHT22;65507;48.454;-2.058;2023-05-10T13:10:23;17.00;75.30
76613;DHT22;65507;48.454;-2.058;2023-05-10T13:12:50;17.00;75.10
76613;DHT22;65507;48.454;-2.058;2023-05-10T13:15:16;17.00;74.80
76613;DHT22;65507;48.454;-2.058;2023-05-10T13:17:42;17.00;74.80
76613;DHT22;65507;48.454;-2.058;2023-05-10T13:20:08;16.90;74.60
76613;DHT22;65507;48.454;-2.058;2023-05-10T13:22:35;17.00;74.50
76613;DHT22;65507;48.454;-2.058;2023-05-10T13:25:01;16.90;74.20
76613;DHT22;65507;48.454;-2.058;2023-05-10T13:27:27;16.90;74.40
76613;DHT22;65507;48.454;-2.058;2023-05-10T13:29:52;16.90;74.30
76613;DHT22;65507;48.454;-2.058;2023-05-10T13:32:18;16.90;74.00
76613;DHT22;65507;48.454;-2.058;2023-05-10T13:34:44;16.80;74.10
76613;DHT22;65507;48.454;-2.058;2023-05-10T13:37:10;16.80;74.10
76613;DHT22;65507;48.454;-2.058;2023-05-10T13:39:37;16.70;74.10
76613;DHT22;65507;48.454;-2.058;2023-05-10T13:42:05;16.70;74.20
76613;DHT22;65507;48.454;-2.058;2023-05-10T13:44:31;16.70;74.20
76613;DHT22;65507;48.454;-2.058;2023-05-10T13:46:59;16.70;74.20
76613;DHT22;65507;48.454;-2.058;2023-05-10T13:49:24;16.70;74.20
76613;DHT22;65507;48.454;-2.058;2023-05-10T13:51:50;16.70;74.20
76613;DHT22;65507;48.454;-2.058;2023-05-10T13:54:16;16.70;74.10
76613;DHT22;65507;48.454;-2.058;2023-05-10T13:56:45;16.70;73.90
76613;DHT22;65507;48.454;-2.058;2023-05-10T13:59:12;16.70;73.90
76613;DHT22;65507;48.454;-2.058;2023-05-10T14:01:39;16.90;73.60
76613;DHT22;65507;48.454;-2.058;2023-05-10T14:04:05;17.00;73.40
76613;DHT22;65507;48.454;-2.058;2023-05-10T14:06:32;17.00;73.10
76613;DHT22;65507;48.454;-2.058;2023-05-10T14:08:58;17.00;73.00
76613;DHT22;65507;48.454;-2.058;2023-05-10T14:11:24;17.00;73.00
76613;DHT22;65507;48.454;-2.058;2023-05-10T14:13:50;17.00;73.00
76613;DHT22;65507;48.454;-2.058;2023-05-10T14:16:15;17.00;73.10
76613;DHT22;65507;48.454;-2.058;2023-05-10T14:18:41;17.10;72.90
76613;DHT22;65507;48.454;-2.058;2023-05-10T14:21:07;17.20;72.80
76613;DHT22;65507;48.454;-2.058;2023-05-10T14:23:32;17.20;72.50
76613;DHT22;65507;48.454;-2.058;2023-05-10T14:25:58;17.30;72.30
76613;DHT22;65507;48.454;-2.058;2023-05-10T14:28:24;17.20;72.20
76613;DHT22;65507;48.454;-2.058;2023-05-10T14:30:50;17.20;72.50
76613;DHT22;65507;48.454;-2.058;2023-05-10T14:33:17;17.10;72.40
76613;DHT22;65507;48.454;-2.058;2023-05-10T14:35:42;17.00;72.80
76613;DHT22;65507;48.454;-2.058;2023-05-10T14:38:08;17.00;72.90
76613;DHT22;65507;48.454;-2.058;2023-05-10T14:40:34;17.10;72.60
76613;DHT22;65507;48.454;-2.058;2023-05-10T14:43:00;17.30;72.30
76613;DHT22;65507;48.454;-2.058;2023-05-10T14:45:25;17.30;71.90
76613;DHT22;65507;48.454;-2.058;2023-05-10T14:47:51;17.40;71.60
76613;DHT22;65507;48.454;-2.058;2023-05-10T14:50:17;17.40;71.50
76613;DHT22;65507;48.454;-2.058;2023-05-10T14:52:43;17.30;71.20
76613;DHT22;65507;48.454;-2.058;2023-05-10T14:55:09;17.30;71.20
76613;DHT22;65507;48.454;-2.058;2023-05-10T14:57:35;17.20;71.10
76613;DHT22;65507;48.454;-2.058;2023-05-10T15:00:02;17.20;70.90
76613;DHT22;65507;48.454;-2.058;2023-05-10T15:02:28;17.30;70.80
76613;DHT22;65507;48.454;-2.058;2023-05-10T15:04:54;17.30;70.80
76613;DHT22;65507;48.454;-2.058;2023-05-10T15:07:20;17.30;70.80
76613;DHT22;65507;48.454;-2.058;2023-05-10T15:09:46;17.30;70.80
76613;DHT22;65507;48.454;-2.058;2023-05-10T15:12:12;17.40;70.80
76613;DHT22;65507;48.454;-2.058;2023-05-10T15:14:37;17.50;70.60
76613;DHT22;65507;48.454;-2.058;2023-05-10T15:17:05;17.50;70.20
76613;DHT22;65507;48.454;-2.058;2023-05-10T15:19:31;17.50;70.20
76613;DHT22;65507;48.454;-2.058;2023-05-10T15:21:58;17.50;70.40
76613;DHT22;65507;48.454;-2.058;2023-05-10T15:24:24;17.50;70.30
76613;DHT22;65507;48.454;-2.058;2023-05-10T15:26:50;17.50;70.20
76613;DHT22;65507;48.454;-2.058;2023-05-10T15:29:16;17.40;70.20
76613;DHT22;65507;48.454;-2.058;2023-05-10T15:31:48;17.40;70.40
76613;DHT22;65507;48.454;-2.058;2023-05-10T15:34:15;17.40;70.30
76613;DHT22;65507;48.454;-2.058;2023-05-10T15:36:41;17.50;70.20
76613;DHT22;65507;48.454;-2.058;2023-05-10T15:39:06;17.40;69.90
76613;DHT22;65507;48.454;-2.058;2023-05-10T15:41:32;17.30;70.00
76613;DHT22;65507;48.454;-2.058;2023-05-10T15:43:58;17.20;70.00
76613;DHT22;65507;48.454;-2.058;2023-05-10T15:46:25;17.20;70.10
76613;DHT22;65507;48.454;-2.058;2023-05-10T15:48:51;17.20;70.10
76613;DHT22;65507;48.454;-2.058;2023-05-10T15:51:17;17.10;70.20